Time;durP1;ratioP1;P1;durP2;ratioP2;P2;SDS_P1;SDS_P2;PMS_P1;PMS_P2;Temp;Humidity;BMP_temperature;BMP_pressure;BME280_temperature;BME280_humidity;BME280_pressure;Samples;Min_cycle;Max_cycle;Signal;HPM_P1;HPM_P2
2021/03/09 00:02:10;;;;;;;26.13;18.48;;;;;;;;;;5052479;28;20044;-70
2021/03/09 00:05:15;;;;;;;26.92;18.15;;;;;;;;;;5053209;28;20048;-70
2021/03/09 00:08:19;;;;;;;31.15;18.13;;;;;;;;;;5053129;28;20044;-70
2021/03/09 00:11:23;;;;;;;26.27;18.38;;;;;;;;;;5053040;28;20044;-70
2021/03/09 00:14:27;;;;;;;32.20;18.60;;;;;;;;;;5053011;28;20060;-70
2021/03/09 00:17:32;;;;;;;23.52;17.27;;;;;;;;;;5052952;28;20413;-70
2021/03/09 00:20:36;;;;;;;24.75;17.63;;;;;;;;;;5052505;28;20052;-70
2021/03/09 00:23:41;;;;;;;29.30;16.95;;;;;;;;;;5052908;28;20048;-70
2021/03/09 00:26:45;;;;;;;23.98;16.60;;;;;;;;;;5053095;28;20044;-69
2021/03/09 00:29:49;;;;;;;25.38;16.92;;;;;;;;;;5052469;28;20049;-69
2021/03/09 00:32:53;;;;;;;25.70;17.58;;;;;;;;;;5052739;28;20040;-69
2021/03/09 00:35:58;;;;;;;28.52;16.05;;;;;;;;;;5052473;28;20040;-69
2021/03/09 00:39:03;;;;;;;24.05;16.65;;;;;;;;;;5052269;28;20045;-69
2021/03/09 00:42:08;;;;;;;26.08;17.67;;;;;;;;;;5052376;28;20044;-70
2021/03/09 00:45:13;;;;;;;26.48;16.73;;;;;;;;;;5052405;28;20048;-69
2021/03/09 00:48:18;;;;;;;26.25;18.00;;;;;;;;;;5052217;28;20043;-69
2021/03/09 00:51:22;;;;;;;25.90;17.50;;;;;;;;;;5052415;28;20040;-69
2021/03/09 00:54:26;;;;;;;31.67;17.63;;;;;;;;;;5051993;28;20503;-69
2021/03/09 00:57:31;;;;;;;27.50;18.58;;;;;;;;;;5052119;28;20048;-70
2021/03/09 01:00:35;;;;;;;32.80;20.75;;;;;;;;;;5051928;28;20187;-69
2021/03/09 01:03:39;;;;;;;31.08;18.30;;;;;;;;;;5051850;28;20398;-69
2021/03/09 01:06:44;;;;;;;25.77;17.52;;;;;;;;;;5052081;28;20396;-69
2021/03/09 01:09:48;;;;;;;27.52;18.42;;;;;;;;;;5052059;28;20044;-69
2021/03/09 01:12:53;;;;;;;26.60;18.25;;;;;;;;;;5051821;28;20040;-69
2021/03/09 01:15:58;;;;;;;28.60;17.50;;;;;;;;;;5051574;28;20044;-69
2021/03/09 01:19:02;;;;;;;26.65;18.40;;;;;;;;;;5051701;28;20049;-69
2021/03/09 01:22:06;;;;;;;24.38;17.85;;;;;;;;;;5051559;28;20055;-69
2021/03/09 01:25:11;;;;;;;28.13;18.13;;;;;;;;;;5051608;28;20044;-69
2021/03/09 01:28:15;;;;;;;31.33;19.17;;;;;;;;;;5050314;28;20052;-69
2021/03/09 01:31:19;;;;;;;29.45;18.63;;;;;;;;;;5051536;28;20040;-69
2021/03/09 01:34:24;;;;;;;29.15;18.55;;;;;;;;;;5051427;28;20036;-69
2021/03/09 01:37:28;;;;;;;30.80;18.13;;;;;;;;;;5051296;28;20495;-69
2021/03/09 01:40:32;;;;;;;29.05;17.70;;;;;;;;;;5051321;28;20052;-69
2021/03/09 01:43:36;;;;;;;29.15;18.08;;;;;;;;;;5050458;28;20040;-69
2021/03/09 01:46:41;;;;;;;27.60;17.55;;;;;;;;;;5051217;28;20480;-69
2021/03/09 01:49:46;;;;;;;29.08;18.92;;;;;;;;;;5051391;28;20044;-69
2021/03/09 01:52:51;;;;;;;29.63;19.40;;;;;;;;;;5051481;28;20052;-69
2021/03/09 01:55:56;;;;;;;26.92;18.17;;;;;;;;;;5051241;28;20472;-69
2021/03/09 01:59:01;;;;;;;27.60;18.35;;;;;;;;;;5051336;28;20060;-69
2021/03/09 02:02:06;;;;;;;27.48;17.88;;;;;;;;;;5051290;28;20044;-69
2021/03/09 02:05:12;;;;;;;29.23;18.52;;;;;;;;;;5050753;28;20040;-69
2021/03/09 02:08:16;;;;;;;30.98;18.98;;;;;;;;;;5051195;28;20044;-69
2021/03/09 02:11:23;;;;;;;26.38;18.00;;;;;;;;;;5051163;28;20587;-69
2021/03/09 02:14:31;;;;;;;27.40;18.95;;;;;;;;;;5050996;28;20048;-69
2021/03/09 02:17:43;;;;;;;27.70;18.23;;;;;;;;;;5050704;28;20048;-69
2021/03/09 02:20:47;;;;;;;33.10;18.58;;;;;;;;;;5050668;28;20052;-70
2021/03/09 02:23:57;;;;;;;31.23;18.67;;;;;;;;;;5049960;28;20448;-70
2021/03/09 02:27:15;;;;;;;28.00;17.77;;;;;;;;;;5050885;28;20044;-69
2021/03/09 02:30:23;;;;;;;31.50;18.25;;;;;;;;;;5050567;28;20373;-69
2021/03/09 02:33:33;;;;;;;34.70;20.48;;;;;;;;;;5050791;28;20052;-69
2021/03/09 02:36:39;;;;;;;32.15;19.70;;;;;;;;;;5050665;28;20044;-69
2021/03/09 02:39:45;;;;;;;32.13;19.48;;;;;;;;;;5049885;28;20051;-69
2021/03/09 02:42:50;;;;;;;29.20;18.88;;;;;;;;;;5050528;28;20094;-69
2021/03/09 02:45:57;;;;;;;31.45;19.58;;;;;;;;;;5050527;28;20044;-69
2021/03/09 02:49:02;;;;;;;29.05;20.05;;;;;;;;;;5050712;28;20040;-69
2021/03/09 02:52:07;;;;;;;27.23;19.88;;;;;;;;;;5050510;28;20051;-69
2021/03/09 02:55:13;;;;;;;34.60;19.58;;;;;;;;;;5050756;28;20036;-69
2021/03/09 02:58:19;;;;;;;27.42;18.80;;;;;;;;;;5050302;28;20654;-69
2021/03/09 03:01:29;;;;;;;25.75;17.27;;;;;;;;;;5053805;28;20112;-69
2021/03/09 03:04:34;;;;;;;30.00;19.45;;;;;;;;;;5054422;28;20044;-69
2021/03/09 03:07:39;;;;;;;27.83;18.70;;;;;;;;;;5054475;28;20404;-69
2021/03/09 03:10:44;;;;;;;32.13;19.80;;;;;;;;;;5054206;28;20056;-69
2021/03/09 03:13:48;;;;;;;31.10;19.08;;;;;;;;;;5054045;28;20044;-69
2021/03/09 03:16:54;;;;;;;26.92;18.95;;;;;;;;;;5053989;28;20063;-69
2021/03/09 03:20:00;;;;;;;27.35;18.40;;;;;;;;;;5053977;28;20055;-69
2021/03/09 03:23:04;;;;;;;33.78;18.73;;;;;;;;;;5053899;28;20104;-69
2021/03/09 03:26:10;;;;;;;31.63;19.35;;;;;;;;;;5054093;28;20047;-69
2021/03/09 03:29:15;;;;;;;30.17;19.45;;;;;;;;;;5054212;28;20051;-69
2021/03/09 03:32:19;;;;;;;31.63;19.50;;;;;;;;;;5054143;28;20044;-69
2021/03/09 03:35:23;;;;;;;30.83;18.35;;;;;;;;;;5053853;28;20554;-69
2021/03/09 03:38:28;;;;;;;31.20;18.67;;;;;;;;;;5053666;28;20040;-69
2021/03/09 03:41:32;;;;;;;31.63;20.00;;;;;;;;;;5053023;28;20056;-69
2021/03/09 03:44:36;;;;;;;27.25;19.17;;;;;;;;;;5053580;28;20040;-69
2021/03/09 03:47:40;;;;;;;31.45;19.65;;;;;;;;;;5053254;28;20048;-69
2021/03/09 03:50:45;;;;;;;27.42;18.08;;;;;;;;;;5053459;28;20044;-69
2021/03/09 03:53:58;;;;;;;32.05;19.17;;;;;;;;;;5053023;28;20432;-69
2021/03/09 03:57:07;;;;;;;29.45;17.73;;;;;;;;;;5053532;28;20055;-69
2021/03/09 04:00:11;;;;;;;25.58;18.13;;;;;;;;;;5053211;28;20511;-69
2021/03/09 04:03:16;;;;;;;27.77;17.95;;;;;;;;;;5053097;28;20039;-69
2021/03/09 04:06:25;;;;;;;27.10;18.20;;;;;;;;;;5053211;28;20539;-69
2021/03/09 04:09:29;;;;;;;31.65;17.00;;;;;;;;;;5053363;28;20048;-69
2021/03/09 04:12:34;;;;;;;27.00;17.58;;;;;;;;;;5052736;28;20392;-69
2021/03/09 04:15:38;;;;;;;28.33;18.25;;;;;;;;;;5053196;28;20611;-69
2021/03/09 04:18:44;;;;;;;29.45;17.70;;;;;;;;;;5052759;28;20048;-69
2021/03/09 04:21:49;;;;;;;28.70;18.08;;;;;;;;;;5052688;28;20061;-69
2021/03/09 04:24:55;;;;;;;27.67;17.40;;;;;;;;;;5052769;28;20040;-69
2021/03/09 04:27:59;;;;;;;29.42;19.13;;;;;;;;;;5052939;28;20048;-69
2021/03/09 04:31:04;;;;;;;32.17;17.45;;;;;;;;;;5052822;28;20499;-69
2021/03/09 04:34:08;;;;;;;29.63;18.42;;;;;;;;;;5052415;28;20172;-69
2021/03/09 04:37:13;;;;;;;31.27;18.58;;;;;;;;;;5052876;28;20044;-69
2021/03/09 04:40:18;;;;;;;33.25;17.88;;;;;;;;;;5052573;28;20068;-69
2021/03/09 04:43:22;;;;;;;32.50;17.88;;;;;;;;;;5052524;28;20641;-69
2021/03/09 04:46:27;;;;;;;28.67;17.23;;;;;;;;;;5052448;28;20052;-69
2021/03/09 04:49:32;;;;;;;32.17;17.95;;;;;;;;;;5052617;28;20044;-69
2021/03/09 04:52:36;;;;;;;28.40;18.40;;;;;;;;;;5052153;28;20044;-69
2021/03/09 04:55:41;;;;;;;32.38;18.48;;;;;;;;;;5052564;28;20044;-69
2021/03/09 04:58:45;;;;;;;33.25;19.58;;;;;;;;;;5052244;28;20040;-69
2021/03/09 05:01:49;;;;;;;33.83;18.67;;;;;;;;;;5051939;28;20055;-69
2021/03/09 05:04:54;;;;;;;28.20;19.65;;;;;;;;;;5051908;28;20040;-69
2021/03/09 05:07:59;;;;;;;30.33;19.50;;;;;;;;;;5052234;28;20040;-69
2021/03/09 05:11:03;;;;;;;33.72;19.23;;;;;;;;;;5051929;28;20043;-69
2021/03/09 05:14:07;;;;;;;37.45;20.75;;;;;;;;;;5052043;28;20052;-69
2021/03/09 05:17:11;;;;;;;35.10;20.60;;;;;;;;;;5051023;28;20056;-69
2021/03/09 05:20:16;;;;;;;33.88;20.67;;;;;;;;;;5051723;28;20056;-69
2021/03/09 05:23:20;;;;;;;31.13;19.05;;;;;;;;;;5050848;28;20419;-69
2021/03/09 05:26:24;;;;;;;33.70;19.90;;;;;;;;;;5051607;28;20048;-69
2021/03/09 05:29:28;;;;;;;33.95;19.60;;;;;;;;;;5051519;28;20044;-69
2021/03/09 05:32:33;;;;;;;37.00;20.27;;;;;;;;;;5051665;28;20047;-69
2021/03/09 05:35:37;;;;;;;32.92;20.08;;;;;;;;;;5051477;28;20056;-69
2021/03/09 05:38:41;;;;;;;31.77;21.17;;;;;;;;;;5051756;28;20056;-69
2021/03/09 05:41:46;;;;;;;43.38;21.17;;;;;;;;;;5051619;28;20053;-69
2021/03/09 05:44:50;;;;;;;38.25;20.70;;;;;;;;;;5051283;28;20032;-69
2021/03/09 05:47:55;;;;;;;36.20;21.73;;;;;;;;;;5051565;28;20505;-69
2021/03/09 05:51:00;;;;;;;38.45;21.02;;;;;;;;;;5051169;28;20039;-69
2021/03/09 05:54:04;;;;;;;31.08;20.83;;;;;;;;;;5051318;28;20048;-69
2021/03/09 05:57:08;;;;;;;34.72;21.95;;;;;;;;;;5051432;28;20036;-69
2021/03/09 06:00:13;;;;;;;44.10;22.88;;;;;;;;;;5051083;28;20040;-69
2021/03/09 06:03:17;;;;;;;35.72;20.88;;;;;;;;;;5050935;28;20044;-69
2021/03/09 06:06:22;;;;;;;38.72;21.70;;;;;;;;;;5051225;28;20064;-69
2021/03/09 06:09:36;;;;;;;39.78;20.73;;;;;;;;;;5051145;28;20052;-69
2021/03/09 06:12:41;;;;;;;32.88;20.17;;;;;;;;;;5050860;28;20040;-69
2021/03/09 06:15:54;;;;;;;38.85;20.27;;;;;;;;;;5051111;28;20048;-69
2021/03/09 06:18:59;;;;;;;36.47;19.50;;;;;;;;;;5050660;28;20056;-69
2021/03/09 06:22:03;;;;;;;35.00;18.00;;;;;;;;;;5051131;28;20056;-69
2021/03/09 06:25:09;;;;;;;32.35;16.52;;;;;;;;;;5051018;28;20060;-69
2021/03/09 06:28:14;;;;;;;34.75;15.77;;;;;;;;;;5050937;28;20056;-69
2021/03/09 06:31:18;;;;;;;26.20;15.10;;;;;;;;;;5050734;28;20036;-69
2021/03/09 06:34:26;;;;;;;30.75;15.68;;;;;;;;;;5052301;28;20396;-69
2021/03/09 06:37:31;;;;;;;32.70;14.77;;;;;;;;;;5054583;28;20044;-69
2021/03/09 06:40:35;;;;;;;23.70;13.98;;;;;;;;;;5054501;28;20052;-69
2021/03/09 06:43:40;;;;;;;24.45;14.95;;;;;;;;;;5054858;28;20491;-69
2021/03/09 06:46:47;;;;;;;35.85;14.00;;;;;;;;;;5054384;28;20044;-69
2021/03/09 06:49:52;;;;;;;37.53;15.48;;;;;;;;;;5054735;28;20044;-69
2021/03/09 06:53:01;;;;;;;29.90;13.90;;;;;;;;;;5054756;28;20404;-69
2021/03/09 06:56:23;;;;;;;32.20;14.93;;;;;;;;;;5054422;28;20044;-69
2021/03/09 06:59:29;;;;;;;29.73;14.38;;;;;;;;;;5054213;28;20078;-65
2021/03/09 07:02:33;;;;;;;26.10;14.57;;;;;;;;;;5054541;28;20064;-70
2021/03/09 07:05:55;;;;;;;34.60;17.48;;;;;;;;;;5054361;28;20048;-68
2021/03/09 07:09:09;;;;;;;35.78;13.82;;;;;;;;;;5054541;28;20052;-68
2021/03/09 07:12:13;;;;;;;28.42;12.20;;;;;;;;;;5053724;28;20044;-66
2021/03/09 07:15:19;;;;;;;26.63;12.93;;;;;;;;;;5054427;28;20044;-70
2021/03/09 07:18:25;;;;;;;26.00;13.07;;;;;;;;;;5054023;28;20044;-69
2021/03/09 07:21:32;;;;;;;28.35;13.68;;;;;;;;;;5054295;28;20444;-69
2021/03/09 07:25:05;;;;;;;36.35;15.25;;;;;;;;;;5053875;28;20048;-69
2021/03/09 07:28:10;;;;;;;29.90;15.50;;;;;;;;;;5053937;28;20384;-69
2021/03/09 07:31:19;;;;;;;27.58;14.25;;;;;;;;;;5053833;28;20040;-68
2021/03/09 07:34:24;;;;;;;26.42;14.00;;;;;;;;;;5053903;28;20052;-69
2021/03/09 07:37:28;;;;;;;35.97;15.60;;;;;;;;;;5054225;28;20543;-69
2021/03/09 07:40:33;;;;;;;31.17;15.07;;;;;;;;;;5053454;28;20052;-69
2021/03/09 07:43:38;;;;;;;108.32;62.70;;;;;;;;;;5053185;28;20045;-67
2021/03/09 07:46:43;;;;;;;34.03;17.60;;;;;;;;;;5052562;28;20519;-69
2021/03/09 07:49:48;;;;;;;38.97;17.35;;;;;;;;;;5053681;28;20544;-67
2021/03/09 07:53:07;;;;;;;38.28;19.13;;;;;;;;;;5053597;28;20342;-69
2021/03/09 07:56:17;;;;;;;35.13;18.17;;;;;;;;;;5053472;28;20048;-72
2021/03/09 07:59:21;;;;;;;36.22;18.15;;;;;;;;;;5053744;28;20044;-70
2021/03/09 08:02:41;;;;;;;40.05;18.50;;;;;;;;;;5053246;28;20051;-71
2021/03/09 08:05:50;;;;;;;35.30;20.10;;;;;;;;;;5053191;28;20044;-68
2021/03/09 08:08:57;;;;;;;43.78;20.70;;;;;;;;;;5053001;28;20397;-70
2021/03/09 08:12:02;;;;;;;44.63;22.88;;;;;;;;;;5053161;28;20036;-70
2021/03/09 08:15:20;;;;;;;36.85;19.33;;;;;;;;;;5053135;28;20052;-69
2021/03/09 08:18:24;;;;;;;34.05;18.92;;;;;;;;;;5052684;28;20052;-72
2021/03/09 08:21:49;;;;;;;37.88;19.63;;;;;;;;;;5052740;28;20060;-72
2021/03/09 08:24:53;;;;;;;35.15;14.60;;;;;;;;;;5052943;28;20052;-69
2021/03/09 08:27:58;;;;;;;32.42;17.05;;;;;;;;;;5052458;28;20531;-67
2021/03/09 08:31:15;;;;;;;69.80;39.03;;;;;;;;;;5052804;28;20052;-67
2021/03/09 08:34:20;;;;;;;23.80;8.57;;;;;;;;;;5052501;28;20048;-68
2021/03/09 08:37:33;;;;;;;26.90;8.23;;;;;;;;;;5052445;28;20033;-67
2021/03/09 08:40:57;;;;;;;35.45;8.27;;;;;;;;;;5052018;28;20044;-68
2021/03/09 08:44:23;;;;;;;22.90;7.97;;;;;;;;;;5052209;28;20044;-68
2021/03/09 08:47:47;;;;;;;22.25;8.18;;;;;;;;;;5052179;28;20028;-70
2021/03/09 08:50:51;;;;;;;22.40;9.10;;;;;;;;;;5052040;28;20045;-72
2021/03/09 08:53:56;;;;;;;26.95;8.80;;;;;;;;;;5052032;28;20045;-65
2021/03/09 08:57:03;;;;;;;25.13;10.45;;;;;;;;;;5051871;28;20033;-69
2021/03/09 09:00:09;;;;;;;22.98;8.60;;;;;;;;;;5051813;28;20052;-65
2021/03/09 09:03:29;;;;;;;18.83;8.25;;;;;;;;;;5051682;28;20037;-67
2021/03/09 09:06:34;;;;;;;21.60;8.40;;;;;;;;;;5051238;28;20037;-66
2021/03/09 09:09:38;;;;;;;42.80;20.38;;;;;;;;;;5051834;28;20037;-65
2021/03/09 09:12:47;;;;;;;21.10;8.00;;;;;;;;;;5051604;28;20048;-66
2021/03/09 09:15:51;;;;;;;18.48;7.18;;;;;;;;;;5051572;28;20037;-67
2021/03/09 09:18:55;;;;;;;20.48;9.25;;;;;;;;;;5051103;28;20366;-66
2021/03/09 09:22:01;;;;;;;30.33;8.60;;;;;;;;;;5050110;28;20044;-69
2021/03/09 09:25:09;;;;;;;22.02;7.60;;;;;;;;;;5050818;28;20040;-67
2021/03/09 09:28:33;;;;;;;23.58;8.05;;;;;;;;;;5050916;28;20418;-67
2021/03/09 09:31:37;;;;;;;21.42;8.82;;;;;;;;;;5051565;28;20045;-67
2021/03/09 09:34:44;;;;;;;25.33;7.82;;;;;;;;;;5051405;28;20029;-67
2021/03/09 09:37:49;;;;;;;16.70;7.70;;;;;;;;;;5051580;28;20041;-67
2021/03/09 09:40:58;;;;;;;20.63;7.28;;;;;;;;;;5051302;28;20052;-67
2021/03/09 09:44:02;;;;;;;17.98;7.50;;;;;;;;;;5051185;28;20029;-67
2021/03/09 09:47:09;;;;;;;22.05;8.48;;;;;;;;;;5051514;28;20048;-67
2021/03/09 09:50:14;;;;;;;20.25;8.30;;;;;;;;;;5050977;28;20041;-67
2021/03/09 09:53:38;;;;;;;20.15;7.13;;;;;;;;;;5051244;28;20045;-67
2021/03/09 09:56:43;;;;;;;25.10;8.07;;;;;;;;;;5051115;28;20037;-67
2021/03/09 09:59:47;;;;;;;28.10;8.00;;;;;;;;;;5050857;28;20040;-67
2021/03/09 10:03:11;;;;;;;24.73;6.95;;;;;;;;;;5050711;28;20049;-69
2021/03/09 10:06:16;;;;;;;21.92;8.13;;;;;;;;;;5050599;28;20041;-70
2021/03/09 10:09:28;;;;;;;21.85;7.53;;;;;;;;;;5048838;28;20041;-70
2021/03/09 10:12:33;;;;;;;19.27;6.40;;;;;;;;;;5050823;28;20041;-72
2021/03/09 10:15:45;;;;;;;23.27;6.82;;;;;;;;;;5050245;28;20041;-70
2021/03/09 10:18:51;;;;;;;23.77;8.63;;;;;;;;;;5050554;28;20048;-70
2021/03/09 10:21:56;;;;;;;23.08;7.53;;;;;;;;;;5050599;28;20045;-72
2021/03/09 10:25:07;;;;;;;17.27;6.90;;;;;;;;;;5050552;28;20370;-69
2021/03/09 10:28:12;;;;;;;;;;;;;;;;;;5051297;28;20041;-71
2021/03/09 10:31:16;;;;;;;11.77;6.75;;;;;;;;;;5051003;28;19915;-71
2021/03/09 10:34:21;;;;;;;24.83;7.85;;;;;;;;;;5050623;28;20404;-71
2021/03/09 10:37:52;;;;;;;22.95;7.72;;;;;;;;;;5050800;28;20037;-70
2021/03/09 10:40:57;;;;;;;27.63;7.65;;;;;;;;;;5050572;28;20045;-74
2021/03/09 10:44:01;;;;;;;26.10;6.93;;;;;;;;;;5050196;28;20097;-69
2021/03/09 10:47:06;;;;;;;18.25;7.18;;;;;;;;;;5050177;28;20041;-69
2021/03/09 10:50:11;;;;;;;18.90;7.13;;;;;;;;;;5050343;28;20071;-68
2021/03/09 10:53:15;;;;;;;22.48;7.32;;;;;;;;;;5049693;28;20037;-67
2021/03/09 10:56:19;;;;;;;23.85;7.53;;;;;;;;;;5050210;28;20033;-68
2021/03/09 10:59:24;;;;;;;33.38;9.20;;;;;;;;;;5050282;28;20350;-69
2021/03/09 11:02:29;;;;;;;21.33;9.02;;;;;;;;;;5050333;28;20048;-70
2021/03/09 11:05:34;;;;;;;22.27;8.38;;;;;;;;;;5050503;28;20037;-69
2021/03/09 11:08:38;;;;;;;13.75;7.00;;;;;;;;;;5050172;28;20032;-70
2021/03/09 11:11:43;;;;;;;21.40;8.27;;;;;;;;;;5050116;28;20032;-69
2021/03/09 11:14:47;;;;;;;20.30;7.65;;;;;;;;;;5050062;28;20488;-68
2021/03/09 11:17:51;;;;;;;24.65;7.10;;;;;;;;;;5050173;28;20041;-68
2021/03/09 11:20:55;;;;;;;22.90;7.90;;;;;;;;;;5051001;28;20049;-68
2021/03/09 11:24:00;;;;;;;17.80;8.23;;;;;;;;;;5054124;28;20041;-67
2021/03/09 11:27:05;;;;;;;20.63;6.68;;;;;;;;;;5054153;28;20033;-67
2021/03/09 11:30:09;;;;;;;21.98;7.07;;;;;;;;;;5053559;28;20041;-67
2021/03/09 11:33:13;;;;;;;17.55;7.45;;;;;;;;;;5053683;28;20044;-67
2021/03/09 11:36:17;;;;;;;22.83;8.90;;;;;;;;;;5053786;28;20033;-70
2021/03/09 11:39:22;;;;;;;27.30;8.70;;;;;;;;;;5052598;28;20029;-69
2021/03/09 11:42:26;;;;;;;28.77;8.35;;;;;;;;;;5051941;28;20040;-73
2021/03/09 11:45:30;;;;;;;27.17;8.77;;;;;;;;;;5053379;28;20500;-67
2021/03/09 11:48:39;;;;;;;34.53;8.82;;;;;;;;;;5053684;28;20369;-74
2021/03/09 11:51:43;;;;;;;20.90;8.20;;;;;;;;;;5052658;28;20037;-69
2021/03/09 11:54:48;;;;;;;22.20;8.38;;;;;;;;;;5052842;28;20400;-69
2021/03/09 11:57:53;;;;;;;30.58;8.65;;;;;;;;;;5052509;28;20041;-69
2021/03/09 12:01:00;;;;;;;25.40;9.50;;;;;;;;;;5052170;28;20505;-70
2021/03/09 12:04:05;;;;;;;12.02;4.65;;;;;;;;;;5053340;28;20037;-69
2021/03/09 12:07:09;;;;;;;13.43;2.88;;;;;;;;;;5052199;28;20033;-70
2021/03/09 12:10:15;;;;;;;11.13;2.00;;;;;;;;;;5053097;28;20033;-69
2021/03/09 12:13:19;;;;;;;11.07;3.05;;;;;;;;;;5052824;28;20041;-69
2021/03/09 12:16:23;;;;;;;17.65;3.33;;;;;;;;;;5053006;28;20041;-69
2021/03/09 12:19:28;;;;;;;9.55;3.20;;;;;;;;;;5053030;28;20045;-67
2021/03/09 12:22:32;;;;;;;9.35;3.40;;;;;;;;;;5052892;28;20044;-68
2021/03/09 12:25:37;;;;;;;8.93;3.47;;;;;;;;;;5052796;28;20033;-69
2021/03/09 12:28:41;;;;;;;69.57;43.35;;;;;;;;;;5052964;28;20049;-68
2021/03/09 12:31:45;;;;;;;16.10;4.88;;;;;;;;;;5052745;28;20052;-67
2021/03/09 12:34:50;;;;;;;7.50;3.05;;;;;;;;;;5052425;28;20029;-67
2021/03/09 12:37:55;;;;;;;23.42;13.98;;;;;;;;;;5052738;28;20037;-66
2021/03/09 12:40:59;;;;;;;12.63;3.75;;;;;;;;;;5052177;28;20052;-65
2021/03/09 12:44:03;;;;;;;18.52;5.13;;;;;;;;;;5051620;28;20041;-66
2021/03/09 12:47:07;;;;;;;13.70;4.65;;;;;;;;;;5052603;28;20045;-66
2021/03/09 12:50:12;;;;;;;7.78;2.53;;;;;;;;;;5052559;28;20037;-66
2021/03/09 12:53:16;;;;;;;14.73;2.90;;;;;;;;;;5051476;28;20037;-66
2021/03/09 12:56:21;;;;;;;10.07;4.32;;;;;;;;;;5052225;28;20041;-66
2021/03/09 12:59:25;;;;;;;21.23;10.85;;;;;;;;;;5051659;28;20037;-66
2021/03/09 13:02:30;;;;;;;19.15;8.90;;;;;;;;;;5051780;28;20068;-66
2021/03/09 13:05:34;;;;;;;74.35;51.53;;;;;;;;;;5052072;28;20037;-65
2021/03/09 13:08:38;;;;;;;11.20;6.57;;;;;;;;;;5052221;28;20071;-65
2021/03/09 13:11:43;;;;;;;10.80;6.13;;;;;;;;;;5051314;28;20366;-65
2021/03/09 13:14:47;;;;;;;8.95;4.90;;;;;;;;;;5051925;28;20048;-66
2021/03/09 13:17:53;;;;;;;13.85;5.60;;;;;;;;;;5051739;28;20053;-65
2021/03/09 13:20:58;;;;;;;15.43;8.68;;;;;;;;;;5050816;28;20045;-65
2021/03/09 13:24:02;;;;;;;13.90;8.57;;;;;;;;;;5051531;28;20044;-63
2021/03/09 13:27:08;;;;;;;10.75;5.13;;;;;;;;;;5051646;28;20041;-64
2021/03/09 13:30:14;;;;;;;13.73;6.22;;;;;;;;;;5051788;28;20037;-65
2021/03/09 13:33:18;;;;;;;7.75;4.25;;;;;;;;;;5051752;28;20049;-67
2021/03/09 13:36:23;;;;;;;6.80;4.10;;;;;;;;;;5050964;28;20382;-65
2021/03/09 13:39:27;;;;;;;4.95;3.13;;;;;;;;;;5051276;28;20040;-66
2021/03/09 13:42:31;;;;;;;6.20;3.40;;;;;;;;;;5051229;28;20386;-66
2021/03/09 13:45:36;;;;;;;8.15;3.90;;;;;;;;;;5051325;28;20045;-66
2021/03/09 13:48:41;;;;;;;11.68;4.88;;;;;;;;;;5051432;28;20041;-66
2021/03/09 13:51:45;;;;;;;7.07;4.20;;;;;;;;;;5051191;28;20607;-65
2021/03/09 13:54:49;;;;;;;7.03;4.82;;;;;;;;;;5050396;28;20033;-67
2021/03/09 13:57:54;;;;;;;10.20;5.65;;;;;;;;;;5051300;28;20041;-67
2021/03/09 14:00:58;;;;;;;7.53;4.40;;;;;;;;;;5050932;28;20040;-71
2021/03/09 14:04:03;;;;;;;12.45;5.38;;;;;;;;;;5051280;28;20033;-67
2021/03/09 14:07:08;;;;;;;13.80;6.68;;;;;;;;;;5050802;28;20033;-68
2021/03/09 14:10:13;;;;;;;14.65;9.55;;;;;;;;;;5050853;28;20037;-65
2021/03/09 14:13:17;;;;;;;17.95;10.38;;;;;;;;;;5050988;28;20037;-67
2021/03/09 14:16:22;;;;;;;15.18;9.52;;;;;;;;;;5051323;28;20040;-68
2021/03/09 14:19:26;;;;;;;14.02;7.93;;;;;;;;;;5051139;28;20048;-67
2021/03/09 14:22:30;;;;;;;15.20;8.13;;;;;;;;;;5050975;28;20535;-68
2021/03/09 14:25:34;;;;;;;17.15;8.48;;;;;;;;;;5050842;28;20037;-68
2021/03/09 14:28:39;;;;;;;15.80;6.28;;;;;;;;;;5049784;28;20041;-72
2021/03/09 14:31:43;;;;;;;10.50;7.25;;;;;;;;;;5051235;28;20044;-67
2021/03/09 14:34:47;;;;;;;32.15;19.58;;;;;;;;;;5051560;28;20049;-67
2021/03/09 14:37:52;;;;;;;16.27;8.82;;;;;;;;;;5051007;28;20044;-67
2021/03/09 14:40:56;;;;;;;23.40;13.57;;;;;;;;;;5050707;28;20049;-71
2021/03/09 14:44:01;;;;;;;28.85;18.00;;;;;;;;;;5050383;28;20048;-68
2021/03/09 14:47:05;;;;;;;17.05;10.48;;;;;;;;;;5050738;28;20112;-68
2021/03/09 14:50:10;;;;;;;10.52;6.32;;;;;;;;;;5050693;28;20138;-68
2021/03/09 14:53:14;;;;;;;12.77;8.00;;;;;;;;;;5050811;28;20050;-69
2021/03/09 14:56:19;;;;;;;10.80;8.07;;;;;;;;;;5053659;28;20049;-67
2021/03/09 14:59:23;;;;;;;25.25;16.88;;;;;;;;;;5054709;28;20037;-67
2021/03/09 15:02:29;;;;;;;11.25;7.65;;;;;;;;;;5054216;28;20059;-69
2021/03/09 15:05:34;;;;;;;16.05;9.13;;;;;;;;;;5054512;28;20108;-69
2021/03/09 15:08:38;;;;;;;14.65;9.13;;;;;;;;;;5054505;28;20397;-67
2021/03/09 15:11:43;;;;;;;16.95;11.88;;;;;;;;;;5054194;28;20041;-65
2021/03/09 15:14:47;;;;;;;19.42;9.73;;;;;;;;;;5054098;28;20048;-66
2021/03/09 15:17:52;;;;;;;14.27;8.75;;;;;;;;;;5053925;28;20049;-69
2021/03/09 15:20:56;;;;;;;16.75;10.15;;;;;;;;;;5054252;28;20048;-65
2021/03/09 15:24:01;;;;;;;10.50;6.82;;;;;;;;;;5051705;28;20059;-65
2021/03/09 15:27:05;;;;;;;12.27;6.95;;;;;;;;;;5053985;28;20046;-65
2021/03/09 15:30:10;;;;;;;9.52;6.30;;;;;;;;;;5054006;28;20044;-67
2021/03/09 15:33:14;;;;;;;9.80;5.65;;;;;;;;;;5053375;28;20040;-66
2021/03/09 15:36:18;;;;;;;9.10;5.40;;;;;;;;;;5053878;28;20037;-67
2021/03/09 15:39:23;;;;;;;5.05;3.58;;;;;;;;;;5054114;28;20033;-66
2021/03/09 15:42:28;;;;;;;9.02;6.15;;;;;;;;;;5052573;28;20049;-68
2021/03/09 15:45:33;;;;;;;10.90;7.43;;;;;;;;;;5053407;28;20033;-67
2021/03/09 15:48:37;;;;;;;11.82;8.48;;;;;;;;;;5053721;28;20036;-66
2021/03/09 15:51:42;;;;;;;8.35;5.97;;;;;;;;;;5053173;28;20044;-68
2021/03/09 15:54:46;;;;;;;9.52;6.03;;;;;;;;;;5053387;28;20040;-66
2021/03/09 15:57:51;;;;;;;14.18;8.82;;;;;;;;;;5053493;28;20385;-65
2021/03/09 16:00:55;;;;;;;12.50;8.63;;;;;;;;;;5053220;28;20387;-67
2021/03/09 16:03:59;;;;;;;10.45;7.53;;;;;;;;;;5053279;28;20037;-67
2021/03/09 16:07:03;;;;;;;13.18;8.88;;;;;;;;;;5051671;28;20374;-70
2021/03/09 16:10:16;;;;;;;17.73;12.38;;;;;;;;;;5053110;28;20045;-68
2021/03/09 16:13:21;;;;;;;17.38;12.00;;;;;;;;;;5052972;28;20044;-70
2021/03/09 16:16:26;;;;;;;18.38;14.88;;;;;;;;;;5053227;28;20052;-68
2021/03/09 16:19:30;;;;;;;16.35;13.05;;;;;;;;;;5053066;28;20075;-67
2021/03/09 16:22:34;;;;;;;17.40;13.20;;;;;;;;;;5052700;28;20056;-68
2021/03/09 16:25:39;;;;;;;19.25;13.50;;;;;;;;;;5053100;28;20428;-69
2021/03/09 16:28:43;;;;;;;17.88;14.10;;;;;;;;;;5053097;28;20055;-68
2021/03/09 16:31:48;;;;;;;27.67;20.63;;;;;;;;;;5052854;28;20043;-68
2021/03/09 16:34:52;;;;;;;17.50;12.77;;;;;;;;;;5052635;28;20068;-69
2021/03/09 16:37:57;;;;;;;14.60;12.07;;;;;;;;;;5051674;28;20048;-68
2021/03/09 16:41:01;;;;;;;16.20;12.23;;;;;;;;;;5052581;28;20400;-68
2021/03/09 16:44:05;;;;;;;12.23;9.93;;;;;;;;;;5052548;28;20043;-68
2021/03/09 16:47:10;;;;;;;13.63;9.63;;;;;;;;;;5052471;28;20029;-67
2021/03/09 16:50:15;;;;;;;11.93;9.85;;;;;;;;;;5052403;28;20109;-67
2021/03/09 16:53:19;;;;;;;13.35;10.27;;;;;;;;;;5052270;28;20041;-67
2021/03/09 16:56:23;;;;;;;11.52;9.48;;;;;;;;;;5052468;28;20051;-68
2021/03/09 16:59:27;;;;;;;12.82;10.50;;;;;;;;;;5052079;28;20037;-69
2021/03/09 17:02:32;;;;;;;19.70;13.60;;;;;;;;;;5051692;28;20052;-69
2021/03/09 17:05:36;;;;;;;17.02;13.13;;;;;;;;;;5052103;28;20040;-69
2021/03/09 17:08:41;;;;;;;18.48;13.15;;;;;;;;;;5052001;28;20507;-68
2021/03/09 17:11:45;;;;;;;15.50;10.82;;;;;;;;;;5052208;28;20405;-65
2021/03/09 17:14:49;;;;;;;16.88;11.68;;;;;;;;;;5051698;28;20040;-67
2021/03/09 17:17:54;;;;;;;17.27;12.05;;;;;;;;;;5051453;28;20060;-73
2021/03/09 17:20:58;;;;;;;59.53;38.53;;;;;;;;;;5050823;28;20044;-70
2021/03/09 17:24:03;;;;;;;23.20;15.00;;;;;;;;;;5051835;28;20519;-69
2021/03/09 17:27:11;;;;;;;19.33;14.52;;;;;;;;;;5051702;28;20047;-69
2021/03/09 17:30:16;;;;;;;22.08;16.40;;;;;;;;;;5051763;28;20048;-68
2021/03/09 17:33:24;;;;;;;24.90;19.02;;;;;;;;;;5051603;28;20048;-66
2021/03/09 17:36:29;;;;;;;32.30;20.65;;;;;;;;;;5051307;28;20056;-66
2021/03/09 17:39:33;;;;;;;24.77;17.90;;;;;;;;;;5051525;28;20052;-65
2021/03/09 17:42:37;;;;;;;19.75;15.02;;;;;;;;;;5051300;28;20570;-67
2021/03/09 17:45:42;;;;;;;16.25;12.18;;;;;;;;;;5051462;28;20048;-68
2021/03/09 17:48:46;;;;;;;26.92;15.45;;;;;;;;;;5051522;28;20052;-66
2021/03/09 17:51:50;;;;;;;23.42;14.50;;;;;;;;;;5050290;28;20056;-66
2021/03/09 17:54:54;;;;;;;16.80;12.75;;;;;;;;;;5051273;28;20056;-65
2021/03/09 17:57:59;;;;;;;21.95;15.30;;;;;;;;;;5051272;28;20040;-66
2021/03/09 18:01:03;;;;;;;17.30;11.80;;;;;;;;;;5051270;28;20052;-65
2021/03/09 18:04:07;;;;;;;21.88;15.63;;;;;;;;;;5050818;28;20047;-67
2021/03/09 18:07:12;;;;;;;15.68;11.10;;;;;;;;;;5051134;28;20040;-65
2021/03/09 18:10:16;;;;;;;15.80;11.15;;;;;;;;;;5050514;28;20048;-65